Time;durP1;ratioP1;P1;durP2;ratioP2;P2;SDS_P1;SDS_P2;PMS_P1;PMS_P2;Temp;Humidity;BMP_temperature;BMP_pressure;BME280_temperature;BME280_humidity;BME280_pressure;Samples;Min_cycle;Max_cycle;Signal;HPM_P1;HPM_P2
2023/06/23 00:00:22;;;;;;;;;1.00;1.00;;;;;18.89;100.00;99753.13;5093715;27;46382;-64
2023/06/23 00:02:48;;;;;;;;;4.20;3.00;;;;;18.90;100.00;99759.31;5092646;27;45421;-64
2023/06/23 00:05:14;;;;;;;;;2.00;2.00;;;;;18.88;100.00;99763.91;5086673;27;45459;-64
2023/06/23 00:07:39;;;;;;;;;1.50;1.50;;;;;18.88;100.00;99763.91;5073389;27;45404;-64
2023/06/23 00:10:06;;;;;;;;;2.50;2.25;;;;;18.88;100.00;99766.56;5086106;27;46605;-63
2023/06/23 00:12:36;;;;;;;;;4.80;4.00;;;;;18.89;100.00;99769.16;5091719;27;45326;-65
2023/06/23 00:15:07;;;;;;;;;3.40;3.00;;;;;18.92;100.00;99765.44;5082326;27;45468;-64
2023/06/23 00:17:32;;;;;;;;;3.00;3.00;;;;;18.90;100.00;99770.88;5094146;27;45464;-64
2023/06/23 00:19:57;;;;;;;;;2.25;1.50;;;;;18.91;100.00;99764.56;5076113;27;46515;-64
2023/06/23 00:22:23;;;;;;;;;4.00;3.00;;;;;18.96;100.00;99780.28;5094214;27;45558;-63
2023/06/23 00:24:49;;;;;;;;;3.00;2.25;;;;;18.96;100.00;99783.81;5076477;27;45487;-64
2023/06/23 00:27:14;;;;;;;;;3.00;2.00;;;;;18.96;100.00;99777.59;5094337;27;45344;-63
2023/06/23 00:29:40;;;;;;;;;9.25;2.00;;;;;18.98;100.00;99773.88;5084222;27;46126;-63
2023/06/23 00:32:05;;;;;;;;;4.00;4.00;;;;;19.01;100.00;99780.84;5095004;27;45441;-63
2023/06/23 00:34:31;;;;;;;;;3.00;3.00;;;;;19.04;100.00;99786.88;5086103;27;45495;-63
2023/06/23 00:36:56;;;;;;;;;5.25;4.00;;;;;19.07;100.00;99777.81;5094937;27;45486;-63
2023/06/23 00:39:22;;;;;;;;;3.50;3.00;;;;;19.10;100.00;99775.75;5085482;27;46090;-63
2023/06/23 00:41:48;;;;;;;;;4.50;4.50;;;;;19.10;100.00;99785.63;5094875;27;45435;-63
2023/06/23 00:44:14;;;;;;;;;5.00;4.20;;;;;19.08;100.00;99791.06;5097190;27;45439;-63
2023/06/23 00:46:43;;;;;;;;;3.60;3.60;;;;;19.10;100.00;99788.31;5086663;27;45629;-63
2023/06/23 00:49:15;;;;;;;;;3.20;3.20;;;;;19.11;100.00;99787.31;5087468;27;46119;-63
2023/06/23 00:51:41;;;;;;;;;4.00;3.00;;;;;19.12;100.00;99784.53;5094255;27;45410;-63
2023/06/23 00:54:07;;;;;;;;;3.00;3.00;;;;;19.12;100.00;99787.22;5085517;27;45345;-62
2023/06/23 00:56:33;;;;;;;;;7.25;4.75;;;;;19.12;100.00;99786.34;5090176;27;45546;-63
2023/06/23 00:58:59;;;;;;;;;3.40;1.60;;;;;19.12;100.00;99781.00;5089062;27;45661;-62
2023/06/23 01:01:25;;;;;;;;;2.00;2.00;;;;;19.11;100.00;99785.50;5079968;27;45937;-63
2023/06/23 01:03:51;;;;;;;;;5.60;3.80;;;;;19.10;100.00;99785.63;5092924;27;45448;-63
2023/06/23 01:06:22;;;;;;;;;4.75;4.25;;;;;19.09;100.00;99790.13;5094512;27;45514;-63
2023/06/23 01:09:11;;;;;;;;;3.60;3.40;;;;;19.09;100.00;99783.91;5092782;27;46784;-63
2023/06/23 01:11:43;;;;;;;;;4.00;3.20;;;;;19.08;100.00;99783.06;5094590;27;45538;-63
2023/06/23 01:14:18;;;;;;;;;3.60;3.60;;;;;19.06;100.00;99795.66;5091930;27;45524;-63
2023/06/23 01:16:54;;;;;;;;;3.80;3.00;;;;;19.06;100.00;99795.66;5097363;27;45476;-62
2023/06/23 01:19:33;;;;;;;;;4.40;4.40;;;;;19.06;100.00;99803.66;5087226;27;46704;-63
2023/06/23 01:22:03;;;;;;;;;3.80;3.60;;;;;19.05;100.00;99796.59;5098336;27;45458;-63
2023/06/23 01:24:29;;;;;;;;;4.80;4.00;;;;;19.05;100.00;99803.75;5087719;27;45510;-63
2023/06/23 01:27:09;;;;;;;;;5.00;3.25;;;;;19.03;100.00;99795.84;5098079;27;45466;-63
2023/06/23 01:29:38;;;;;;;;;3.60;3.00;;;;;19.04;100.00;99807.38;5080749;27;46223;-62
2023/06/23 01:32:20;;;;;;;;;6.00;4.00;;;;;19.05;100.00;99801.94;5088509;27;45417;-62
2023/06/23 01:34:50;;;;;;;;;5.00;3.00;;;;;19.05;100.00;99806.44;5082387;27;45388;-63
2023/06/23 01:37:21;;;;;;;;;4.20;2.00;;;;;19.04;100.00;99804.72;5090859;27;45692;-63
2023/06/23 01:40:09;;;;;;;;;1.40;1.40;;;;;19.05;100.00;99807.28;5085870;27;45423;-63
2023/06/23 01:42:38;;;;;;;;;3.20;3.00;;;;;19.06;100.00;99809.00;5092069;27;45463;-63
2023/06/23 01:45:07;;;;;;;;;3.00;3.00;;;;;19.09;100.00;99815.97;5088157;27;45325;-63
2023/06/23 01:47:39;;;;;;;;;2.60;2.60;;;;;19.09;100.00;99808.81;5093907;27;45449;-63
2023/06/23 01:50:06;;;;;;;;;4.00;3.00;;;;;19.12;100.00;99816.63;5091473;27;45381;-63
2023/06/23 01:52:34;;;;;;;;;3.00;3.00;;;;;19.13;100.00;99812.13;5095510;27;45450;-63
2023/06/23 01:55:02;;;;;;;;;4.60;3.00;;;;;19.15;100.00;99821.78;5093519;27;45456;-63
2023/06/23 01:57:30;;;;;;;;;2.60;2.20;;;;;19.21;100.00;99817.00;5094437;27;45417;-63
2023/06/23 01:59:57;;;;;;;;;6.40;4.00;;;;;19.21;100.00;99825.88;5084825;27;45471;-63
2023/06/23 02:02:24;;;;;;;;;3.00;3.00;;;;;19.23;100.00;99821.28;5076225;27;45507;-63
2023/06/23 02:04:51;;;;;;;;;4.00;4.00;;;;;19.22;100.00;99816.03;5085633;27;45480;-63
2023/06/23 02:07:19;;;;;;;;;4.60;4.60;;;;;19.19;100.00;99811.75;5093028;27;45455;-63
2023/06/23 02:09:46;;;;;;;;;4.20;4.20;;;;;19.21;100.00;99811.66;5085177;27;45507;-63
2023/06/23 02:12:13;;;;;;;;;5.80;5.00;;;;;19.22;100.00;99814.22;5094257;27;45402;-63
2023/06/23 02:14:40;;;;;;;;;4.60;4.60;;;;;19.21;100.00;99807.16;5091000;27;45390;-63
2023/06/23 02:17:10;;;;;;;;;6.00;4.50;;;;;19.20;100.00;99809.94;5096972;27;45420;-64
2023/06/23 02:19:45;;;;;;;;;4.40;3.40;;;;;19.18;100.00;99818.06;5081823;27;46315;-63
2023/06/23 02:22:13;;;;;;;;;6.40;5.20;;;;;19.17;100.00;99811.00;5085039;27;45448;-63
2023/06/23 02:24:39;;;;;;;;;3.80;2.80;;;;;19.17;100.00;99811.84;5092296;27;45553;-64
2023/06/23 02:27:07;;;;;;;;;4.25;4.00;;;;;19.16;100.00;99811.94;5096769;27;45521;-64
2023/06/23 02:29:39;;;;;;;;;4.00;3.60;;;;;19.15;100.00;99812.91;5086342;27;46149;-63
2023/06/23 02:32:05;;;;;;;;;5.20;4.00;;;;;19.14;100.00;99813.84;5096665;27;45419;-64
2023/06/23 02:34:30;;;;;;;;;7.00;6.40;;;;;19.14;100.00;99814.72;5087512;27;45678;-64
2023/06/23 02:37:01;;;;;;;;;5.75;5.75;;;;;19.15;100.00;99812.91;5096225;27;45510;-64
2023/06/23 02:39:32;;;;;;;;;4.80;4.80;;;;;19.16;100.00;99809.25;5086990;27;46443;-64
2023/06/23 02:42:00;;;;;;;;;5.20;5.20;;;;;19.18;100.00;99810.88;5096698;27;45446;-64
2023/06/23 02:44:34;;;;;;;;;5.60;5.60;;;;;19.20;100.00;99817.94;5090181;27;45456;-64
2023/06/23 02:47:03;;;;;;;;;7.50;5.00;;;;;19.23;100.00;99815.94;5096699;27;45419;-63
2023/06/23 02:49:30;;;;;;;;;6.00;5.60;;;;;19.23;100.00;99810.59;5089744;27;47771;-64
2023/06/23 02:51:59;;;;;;;;;6.60;6.60;;;;;19.21;100.00;99814.31;5078474;27;45444;-64
2023/06/23 02:54:26;;;;;;;;;6.60;5.00;;;;;19.18;100.00;99813.56;5088687;27;45427;-63
2023/06/23 02:56:57;;;;;;;;;5.75;5.00;;;;;19.21;100.00;99812.50;5092147;27;45479;-64
2023/06/23 02:59:24;;;;;;;;;4.00;4.00;;;;;19.24;100.00;99816.81;5077117;27;48069;-64
2023/06/23 03:01:53;;;;;;;;;6.80;6.20;;;;;19.25;100.00;99827.41;5095996;27;45434;-64
2023/06/23 03:04:19;;;;;;;;;7.40;6.60;;;;;19.26;100.00;99818.44;5094164;27;45396;-64
2023/06/23 03:06:45;;;;;;;;;4.60;4.60;;;;;19.24;100.00;99823.00;5095996;27;45473;-64
2023/06/23 03:09:11;;;;;;;;;6.20;5.60;;;;;19.24;100.00;99823.00;5091286;27;45520;-64
2023/06/23 03:11:37;;;;;;;;;4.25;4.25;;;;;19.26;100.00;99831.81;5093931;27;45440;-64
2023/06/23 03:14:04;;;;;;;;;4.20;4.20;;;;;19.28;100.00;99837.88;5091985;27;45420;-64
2023/06/23 03:16:35;;;;;;;;;4.00;4.00;;;;;19.28;100.00;99835.19;5094707;27;45322;-64
2023/06/23 03:19:44;;;;;;;;;5.00;5.00;;;;;19.28;100.00;99840.56;5090931;27;45552;-64
2023/06/23 03:22:22;;;;;;;;;5.00;5.00;;;;;19.29;100.00;99833.38;5025950;28;45537;-64
2023/06/23 03:24:52;;;;;;;;;5.20;3.40;;;;;19.29;100.00;99838.75;5032033;28;45437;-64
2023/06/23 03:27:21;;;;;;;;;4.00;4.00;;;;;19.29;100.00;99828.03;5070536;27;45591;-64
2023/06/23 03:29:53;;;;;;;;;4.20;4.00;;;;;19.31;100.00;99837.69;5084869;27;45490;-64
2023/06/23 03:32:25;;;;;;;;;2.80;2.80;;;;;19.32;100.00;99835.88;5095451;27;45415;-64
2023/06/23 03:35:03;;;;;;;;;5.00;5.00;;;;;19.34;100.00;99836.63;5091119;27;45564;-64
2023/06/23 03:37:31;;;;;;;;;5.50;4.00;;;;;19.35;100.00;99843.69;5094535;27;45430;-64
2023/06/23 03:40:04;;;;;;;;;5.60;5.20;;;;;19.36;100.00;99840.94;5093206;27;46525;-64
2023/06/23 03:42:32;;;;;;;;;5.40;5.20;;;;;19.37;100.00;99847.13;5093231;27;45528;-64
2023/06/23 03:45:02;;;;;;;;;3.20;3.20;;;;;19.38;100.00;99849.72;5088088;27;45393;-64
2023/06/23 03:47:30;;;;;;;;;6.00;4.40;;;;;19.36;100.00;99848.94;5074073;27;45590;-64
2023/06/23 03:50:01;;;;;;;;;4.20;4.20;;;;;19.38;100.00;99851.53;5085346;27;46489;-64
2023/06/23 03:52:28;;;;;;;;;4.20;4.20;;;;;19.39;100.00;99854.09;5074859;27;45780;-64
2023/06/23 03:54:56;;;;;;;;;5.20;4.60;;;;;19.38;100.00;99864.91;5092662;27;45621;-64
2023/06/23 03:57:26;;;;;;;;;5.00;5.00;;;;;19.37;100.00;99848.00;5092463;27;45338;-64
2023/06/23 03:59:55;;;;;;;;;5.00;5.00;;;;;19.33;100.00;99854.50;5087210;27;46603;-64
2023/06/23 04:02:22;;;;;;;;;5.40;5.40;;;;;19.30;100.00;99851.16;5109194;27;45422;-64
2023/06/23 04:04:53;;;;;;;;;6.60;6.00;;;;;19.30;100.00;99854.69;5086215;27;45469;-63
2023/06/23 04:07:19;;;;;;;;;7.50;6.25;;;;;19.29;100.00;99850.28;5094285;27;45539;-63
2023/06/23 04:09:49;;;;;;;;;5.60;4.60;;;;;19.29;100.00;99869.00;5085043;27;46449;-63
2023/06/23 04:12:17;;;;;;;;;5.00;5.00;;;;;19.27;100.00;99856.72;5093669;27;45632;-64
2023/06/23 04:14:46;;;;;;;;;6.00;6.00;;;;;19.25;100.00;99859.50;5088792;27;45428;-63
2023/06/23 04:17:12;;;;;;;;;7.40;6.40;;;;;19.29;100.00;99860.13;5094820;27;45365;-63
2023/06/23 04:19:42;;;;;;;;;5.60;5.40;;;;;19.32;100.00;99865.28;5074261;27;48296;-64
2023/06/23 04:22:09;;;;;;;;;4.00;4.00;;;;;19.35;100.00;99867.75;5094903;27;45511;-64
2023/06/23 04:24:38;;;;;;;;;3.20;3.20;;;;;19.37;100.00;99856.03;5084203;27;45479;-64
2023/06/23 04:27:07;;;;;;;;;5.50;4.25;;;;;19.39;100.00;99866.63;5078575;27;45448;-64
2023/06/23 04:29:36;;;;;;;;;6.40;5.80;;;;;19.39;100.00;99862.13;5084780;27;45514;-64
2023/06/23 04:32:02;;;;;;;;;5.40;5.40;;;;;19.42;100.00;99861.94;5094955;27;45548;-64
2023/06/23 04:34:28;;;;;;;;;4.00;4.00;;;;;19.43;100.00;99860.13;5089175;27;45639;-64
2023/06/23 04:37:04;;;;;;;;;5.50;4.25;;;;;19.46;100.00;99865.25;5094621;27;45363;-64
2023/06/23 04:39:42;;;;;;;;;5.40;5.00;;;;;19.45;100.00;99867.06;5089829;27;46176;-64
2023/06/23 04:42:11;;;;;;;;;4.60;4.00;;;;;19.47;100.00;99869.63;5090689;27;45447;-64
2023/06/23 04:44:43;;;;;;;;;5.60;5.60;;;;;19.48;100.00;99876.72;5085197;27;45531;-64
2023/06/23 04:47:11;;;;;;;;;5.50;5.50;;;;;19.50;100.00;99875.69;5094025;27;45395;-63
2023/06/23 04:49:39;;;;;;;;;4.20;4.20;;;;;19.50;100.00;99864.13;5085311;27;45452;-63
2023/06/23 04:52:08;;;;;;;;;4.60;4.60;;;;;19.51;100.00;99858.69;5089927;27;45510;-64
2023/06/23 04:54:41;;;;;;;;;6.00;5.60;;;;;19.49;100.00;99871.28;5085816;27;45366;-63
2023/06/23 04:57:21;;;;;;;;;7.25;6.00;;;;;19.45;100.00;99867.06;5090162;27;45510;-63
2023/06/23 04:59:51;;;;;;;;;6.20;5.00;;;;;19.47;100.00;99873.19;5084457;27;45598;-64
2023/06/23 05:02:19;;;;;;;;;4.80;4.80;;;;;19.49;100.00;99867.72;5107984;27;45428;-67
2023/06/23 05:04:47;;;;;;;;;4.40;4.00;;;;;19.51;100.00;99863.19;5086700;27;45490;-67
2023/06/23 05:07:16;;;;;;;;;3.20;3.20;;;;;19.56;100.00;99873.59;5093869;27;45530;-67
2023/06/23 05:09:46;;;;;;;;;6.60;5.60;;;;;19.61;100.00;99868.78;5084959;27;45486;-67
2023/06/23 05:12:14;;;;;;;;;6.60;4.80;;;;;19.66;100.00;99869.34;5064756;27;45519;-61
2023/06/23 05:14:42;;;;;;;;;5.40;5.40;;;;;19.74;100.00;99864.34;5071212;27;45486;-61
2023/06/23 05:17:10;;;;;;;;;4.50;1.00;;;;;19.80;100.00;99855.91;5080621;27;45567;-61
2023/06/23 05:19:37;;;;;;;;;7.20;6.00;;;;;19.88;100.00;99875.00;5086859;27;45403;-61
2023/06/23 05:22:08;;;;;;;;;5.40;5.20;;;;;19.96;100.00;99878.00;5074549;27;45420;-61
2023/06/23 05:24:37;;;;;;;;;6.00;6.00;;;;;20.03;100.00;99873.97;5081369;27;45403;-61
2023/06/23 05:27:08;;;;;;;;;7.75;7.75;;;;;20.08;100.00;99874.53;5091888;27;45357;-61
2023/06/23 05:29:37;;;;;;;;;6.40;4.40;;;;;20.15;100.00;99878.50;5082255;27;45615;-61
2023/06/23 05:32:06;;;;;;;;;5.20;4.80;;;;;20.23;100.00;99871.78;5093453;27;45409;-61
2023/06/23 05:34:32;;;;;;;;;6.20;6.00;;;;;20.27;100.00;99882.19;5081231;27;45488;-61
2023/06/23 05:37:00;;;;;;;;;5.60;5.20;;;;;20.31;100.00;99880.13;5093115;27;45458;-61
2023/06/23 05:39:28;;;;;;;;;9.25;7.00;;;;;20.34;100.00;99870.09;5083769;27;46365;-60
2023/06/23 05:41:54;;;;;;;;;5.40;5.40;;;;;20.38;100.00;99878.81;5092661;27;45469;-61
2023/06/23 05:44:19;;;;;;;;;5.50;5.50;;;;;20.39;100.00;99876.03;5090445;27;45443;-61
2023/06/23 05:46:47;;;;;;;;;6.50;6.50;;;;;20.41;100.00;99874.09;5086031;27;45430;-61
2023/06/23 05:49:16;;;;;;;;;5.60;5.60;;;;;20.43;100.00;99861.47;5086965;27;46504;-61
2023/06/23 05:51:43;;;;;;;;;6.00;6.00;;;;;20.44;100.00;99867.69;5094407;27;45381;-61
2023/06/23 05:54:11;;;;;;;;;6.40;6.00;;;;;20.46;100.00;99871.94;5088137;27;45734;-61
2023/06/23 05:56:48;;;;;;;;;7.00;7.00;;;;;20.48;100.00;99872.69;5090783;27;45618;-61
2023/06/23 05:59:51;;;;;;;;;9.00;6.60;;;;;20.50;100.00;99870.78;5092204;27;45443;-61
2023/06/23 06:02:21;;;;;;;;;9.20;7.40;;;;;20.52;100.00;99866.19;5058012;27;45593;-61
2023/06/23 06:04:49;;;;;;;;;7.80;7.80;;;;;20.54;100.00;99869.59;5087939;27;45372;-61
2023/06/23 06:07:17;;;;;;;;;7.25;7.25;;;;;20.59;100.00;99868.44;5094099;27;45464;-61
2023/06/23 06:09:44;;;;;;;;;10.00;9.20;;;;;20.64;100.00;99867.13;5064258;27;45691;-69
2023/06/23 06:12:12;;;;;;;;;9.20;9.20;;;;;20.64;100.00;99864.44;5035503;27;46463;-69
2023/06/23 06:14:39;;;;;;;;;8.20;6.40;;;;;20.66;100.00;99872.38;5076612;27;45483;-69
2023/06/23 06:17:07;;;;;;;;;10.00;9.00;;;;;20.65;100.00;99868.00;5083862;27;45442;-68
2023/06/23 06:19:36;;;;;;;;;7.60;7.00;;;;;20.65;100.00;99876.03;5086837;27;45521;-69
2023/06/23 06:22:03;;;;;;;;;8.40;7.00;;;;;20.66;100.00;99875.06;5067433;27;45596;-69
2023/06/23 06:24:30;;;;;;;;;11.80;8.40;;;;;20.68;100.00;99871.31;5082179;27;45451;-68
2023/06/23 06:26:56;;;;;;;;;9.00;9.00;;;;;20.68;100.00;99870.47;5085861;27;45512;-68
2023/06/23 06:29:23;;;;;;;;;12.20;8.80;;;;;20.71;100.00;99872.94;5076302;27;45626;-69
2023/06/23 06:31:51;;;;;;;;;11.00;11.00;;;;;20.69;100.00;99869.50;5087114;27;45427;-68
2023/06/23 06:34:18;;;;;;;;;14.50;14.50;;;;;20.66;100.00;99867.88;5081903;27;45917;-68
2023/06/23 06:36:45;;;;;;;;;15.25;15.25;;;;;20.60;100.00;99878.19;5082556;27;45640;-68
2023/06/23 06:39:11;;;;;;;;;15.00;15.00;;;;;20.56;100.00;99872.19;5086926;27;45428;-68
2023/06/23 06:41:40;;;;;;;;;12.00;12.00;;;;;20.55;100.00;99865.97;5084773;27;45467;-67
2023/06/23 06:44:05;;;;;;;;;11.00;11.00;;;;;20.55;100.00;99868.66;5078897;27;45668;-68
2023/06/23 06:46:32;;;;;;;;;10.75;9.75;;;;;20.56;100.00;99872.19;5070368;27;45810;-68
2023/06/23 06:48:59;;;;;;;;;11.40;11.00;;;;;20.61;100.00;99870.03;5081771;27;45547;-68
2023/06/23 06:51:26;;;;;;;;;10.40;10.20;;;;;20.67;100.00;99874.09;5084435;27;45520;-68
2023/06/23 06:53:52;;;;;;;;;7.80;7.80;;;;;20.71;100.00;99876.47;5086097;27;45498;-68
2023/06/23 06:56:18;;;;;;;;;11.50;10.00;;;;;20.72;100.00;99864.78;5086572;27;45545;-68
2023/06/23 06:58:44;;;;;;;;;16.75;13.50;;;;;20.71;100.00;99872.94;5083900;27;46386;-68
2023/06/23 07:01:11;;;;;;;;;15.75;12.50;;;;;20.71;100.00;99862.22;5088042;27;45501;-68
2023/06/23 07:03:39;;;;;;;;;12.00;12.00;;;;;20.73;100.00;99857.63;5087867;27;45483;-68
2023/06/23 07:06:06;;;;;;;;;9.75;9.75;;;;;20.78;100.00;99861.66;5087056;27;45471;-68
2023/06/23 07:08:31;;;;;;;;;11.50;11.00;;;;;20.83;100.00;99870.25;5090128;27;45535;-68
2023/06/23 07:10:57;;;;;;;;;8.75;8.25;;;;;20.90;100.00;99876.03;5085564;27;45599;-68
2023/06/23 07:13:22;;;;;;;;;11.50;10.25;;;;;20.92;100.00;99867.91;5087217;27;45438;-68
2023/06/23 07:15:47;;;;;;;;;13.25;11.50;;;;;20.96;100.00;99870.22;5092930;27;45748;-68
2023/06/23 07:18:13;;;;;;;;;10.25;8.00;;;;;20.98;100.00;99873.66;5073603;27;47280;-68
2023/06/23 07:20:38;;;;;;;;;10.50;10.50;;;;;21.04;100.00;99869.69;5092273;27;45806;-68
2023/06/23 07:23:04;;;;;;;;;10.75;10.00;;;;;21.09;100.00;99871.09;5088711;27;45451;-68
2023/06/23 07:25:29;;;;;;;;;12.25;10.75;;;;;21.16;100.00;99867.00;5092379;27;45428;-67
2023/06/23 07:27:54;;;;;;;;;10.50;10.50;;;;;21.22;100.00;99863.06;5071422;27;48075;-68
2023/06/23 07:30:20;;;;;;;;;12.50;12.25;;;;;21.33;100.00;99863.13;5064661;27;45446;-67
2023/06/23 07:32:46;;;;;;;;;13.25;11.50;;;;;21.39;100.00;99860.00;5088835;27;45785;-67
2023/06/23 07:35:12;;;;;;;;;9.00;5.00;;;;;21.41;100.00;99851.84;5086565;27;45517;-68
2023/06/23 07:37:38;;;;;;;;;12.00;9.25;;;;;21.46;100.00;99863.94;5090834;27;45459;-68
2023/06/23 07:40:08;;;;;;;;;13.00;12.20;;;;;21.49;100.00;99863.72;5091676;27;45290;-68
2023/06/23 07:42:33;;;;;;;;;9.60;9.00;;;;;21.51;100.00;99863.63;5087489;27;45608;-68
2023/06/23 07:44:58;;;;;;;;;12.00;11.25;;;;;21.57;100.00;99864.03;5087454;27;45420;-68
2023/06/23 07:47:24;;;;;;;;;13.75;12.00;;;;;21.62;100.00;99871.72;5092174;27;45608;-68
2023/06/23 07:49:49;;;;;;;;;10.50;9.00;;;;;21.65;100.00;99874.19;5085246;27;45395;-68
2023/06/23 07:52:15;;;;;;;;;9.75;9.50;;;;;21.68;100.00;99868.59;5074034;27;45679;-68
2023/06/23 07:54:40;;;;;;;;;12.25;12.00;;;;;21.69;100.00;99864.94;5086459;27;45515;-68
2023/06/23 07:57:08;;;;;;;;;13.25;12.00;;;;;21.70;100.00;99853.25;5071222;27;46756;-68
2023/06/23 07:59:34;;;;;;;;;11.40;11.20;;;;;21.73;100.00;99850.34;5087719;27;45393;-68
2023/06/23 08:02:00;;;;;;;;;11.20;10.20;;;;;21.77;100.00;99854.50;5092339;27;45407;-68
2023/06/23 08:04:25;;;;;;;;;12.00;12.00;;;;;21.83;100.00;99856.72;5086654;27;45514;-68
2023/06/23 08:06:51;;;;;;;;;14.00;11.50;;;;;21.83;100.00;99862.09;5088712;27;45550;-68
2023/06/23 08:09:16;;;;;;;;;14.75;13.00;;;;;21.85;100.00;99852.09;5088639;27;45486;-68
2023/06/23 08:11:42;;;;;;;;;11.50;11.50;;;;;21.86;97.55;99858.31;5090032;27;45660;-69
2023/06/23 08:14:07;;;;;;;;;12.00;11.25;;;;;21.87;100.00;99849.28;5080909;27;45512;-68
2023/06/23 08:16:32;;;;;;;;;9.25;9.25;;;;;21.91;100.00;99848.97;5088764;27;46512;-68
2023/06/23 08:18:58;;;;;;;;;12.00;12.00;;;;;21.93;100.00;99844.34;5098355;27;45541;-68
2023/06/23 08:21:23;;;;;;;;;12.00;11.00;;;;;21.93;95.04;99843.47;5089005;27;45573;-68
2023/06/23 08:23:49;;;;;;;;;7.25;7.25;;;;;21.92;98.08;99848.00;5091054;27;45380;-68
2023/06/23 08:26:15;;;;;;;;;14.50;12.00;;;;;21.96;100.00;99837.84;5073145;27;46070;-68
2023/06/23 08:28:41;;;;;;;;;6.20;6.20;;;;;21.97;91.05;99852.13;5089353;27;45364;-70
2023/06/23 08:31:06;;;;;;;;;11.75;11.75;;;;;21.98;100.00;99840.41;5092045;27;45365;-69
2023/06/23 08:33:35;;;;;;;;;14.25;11.25;;;;;22.02;95.74;99848.16;5085017;27;45518;-69
2023/06/23 08:36:01;;;;;;;;;12.40;10.20;;;;;22.02;86.91;99839.25;5084123;27;46445;-68
2023/06/23 08:38:27;;;;;;;;;10.80;10.80;;;;;22.06;88.96;99860.41;5075547;27;45477;-69
2023/06/23 08:40:53;;;;;;;;;9.75;9.75;;;;;22.06;92.25;99855.03;5089339;27;45349;-69
2023/06/23 08:43:25;;;;;;;;;11.50;10.50;;;;;22.07;84.60;99853.19;5087982;27;45427;-69
2023/06/23 08:45:58;;;;;;;;;14.00;13.40;;;;;22.08;83.58;99849.53;5092673;27;45506;-68
2023/06/23 08:48:27;;;;;;;;;12.40;12.40;;;;;22.12;84.65;99841.13;5085929;27;45489;-68
2023/06/23 08:50:59;;;;;;;;;13.40;11.00;;;;;22.24;94.48;99847.41;5091175;27;45545;-68
2023/06/23 08:53:25;;;;;;;;;9.80;9.80;;;;;22.31;83.71;99853.13;5073432;27;45602;-67
2023/06/23 08:55:52;;;;;;;;;12.00;12.00;;;;;22.30;83.44;99852.28;5086080;27;45493;-67
2023/06/23 08:58:19;;;;;;;;;11.00;10.80;;;;;22.32;81.14;99844.09;5086992;27;45456;-69
2023/06/23 09:00:45;;;;;;;;;11.60;10.00;;;;;22.34;84.35;99840.34;5065708;28;45701;-68
2023/06/23 09:03:10;;;;;;;;;11.00;8.75;;;;;22.38;72.74;99841.81;5082692;27;45376;-69
2023/06/23 09:05:36;;;;;;;;;10.25;10.25;;;;;22.39;73.77;99837.31;5090133;27;45562;-68
2023/06/23 09:08:01;;;;;;;;;12.75;11.75;;;;;22.43;72.44;99826.22;5090629;27;45347;-69
2023/06/23 09:10:27;;;;;;;;;9.75;9.25;;;;;22.50;78.40;99840.00;5090208;27;45402;-68
2023/06/23 09:13:27;;;;;;;;;7.50;7.50;;;;;22.52;75.14;99852.34;5070392;27;45510;-68
2023/06/23 09:15:52;;;;;;;;;9.80;9.80;;;;;22.52;76.65;99857.72;5093055;27;45534;-65
2023/06/23 09:18:18;;;;;;;;;12.00;12.00;;;;;22.52;72.87;99849.66;5092005;27;45557;-67
2023/06/23 09:20:49;;;;;;;;;12.00;12.00;;;;;22.59;73.00;99833.94;5087060;27;45483;-66
2023/06/23 09:23:22;;;;;;;;;13.00;11.25;;;;;22.66;75.60;99832.44;5093478;27;45506;-66
2023/06/23 09:25:50;;;;;;;;;8.80;8.80;;;;;22.70;77.63;99838.44;5095925;27;46676;-66
2023/06/23 09:28:26;;;;;;;;;12.00;12.00;;;;;22.73;76.41;99846.28;5076914;27;45455;-66
2023/06/23 09:30:54;;;;;;;;;7.40;7.40;;;;;22.78;81.77;99844.97;5096156;27;45427;-66
2023/06/23 09:33:20;;;;;;;;;12.25;12.25;;;;;22.77;70.46;99835.19;5090618;27;45513;-66
2023/06/23 09:35:51;;;;;;;;;12.80;12.80;;;;;22.76;76.67;99835.28;5105261;27;47854;-66
2023/06/23 09:38:21;;;;;;;;;10.40;9.80;;;;;22.79;78.60;99843.16;5075132;27;45466;-66
2023/06/23 09:40:46;;;;;;;;;12.40;12.40;;;;;22.77;71.65;99823.59;5085962;27;45461;-67
2023/06/23 09:43:14;;;;;;;;;14.50;14.50;;;;;22.82;66.50;99837.50;5090303;27;45390;-65
2023/06/23 09:45:39;;;;;;;;;8.60;8.20;;;;;22.84;74.62;99825.66;5092788;27;45498;-66
2023/06/23 09:48:15;;;;;;;;;11.00;11.00;;;;;22.85;72.23;99821.13;5074720;27;45460;-65
2023/06/23 09:50:41;;;;;;;;;14.75;12.00;;;;;22.87;70.54;99824.56;5075401;27;45444;-65
2023/06/23 09:53:08;;;;;;;;;10.75;8.25;;;;;22.89;72.04;99819.91;5073405;27;45516;-65
2023/06/23 09:55:34;;;;;;;;;12.20;11.20;;;;;22.85;73.44;99824.69;5087753;27;45487;-66
2023/06/23 09:58:03;;;;;;;;;12.25;12.00;;;;;22.89;67.20;99815.41;5092662;27;45454;-66
2023/06/23 10:00:30;;;;;;;;;10.00;8.80;;;;;22.89;69.72;99814.53;5090969;27;45353;-66
2023/06/23 10:02:59;;;;;;;;;11.25;10.00;;;;;22.93;69.26;99814.19;5092604;27;45472;-67
2023/06/23 10:05:24;;;;;;;;;11.80;11.80;;;;;23.00;70.03;99803.75;5089747;27;45519;-65
2023/06/23 10:08:04;;;;;;;;;10.00;10.00;;;;;;;;5093871;27;45314;-67
2023/06/23 10:10:30;;;;;;;;;11.00;11.00;;;;;23.17;66.94;99805.94;5087034;27;45420;-66
2023/06/23 10:12:55;;;;;;;;;7.25;7.25;;;;;23.27;64.45;99814.16;5089736;27;45444;-66
2023/06/23 10:15:23;;;;;;;;;8.75;8.75;;;;;23.36;62.63;99817.91;5091690;27;46281;-68
2023/06/23 10:17:48;;;;;;;;;11.40;10.40;;;;;23.46;59.99;99810.81;5092907;27;45455;-67
2023/06/23 10:20:14;;;;;;;;;5.00;5.00;;;;;23.51;61.09;99843.56;5087139;27;45486;-67
2023/06/23 10:22:40;;;;;;;;;6.00;5.00;;;;;23.58;62.81;99839.44;5073980;27;46161;-67
2023/06/23 10:25:12;;;;;;;;;9.80;8.20;;;;;23.66;67.35;99810.03;5095267;27;45658;-66
2023/06/23 10:27:40;;;;;;;;;9.60;8.80;;;;;23.72;59.48;99804.13;5093166;27;45414;-67
2023/06/23 10:30:10;;;;;;;;;5.40;3.00;;;;;23.78;61.60;99798.25;5090560;27;45420;-67
2023/06/23 10:32:36;;;;;;;;;7.20;7.20;;;;;23.86;61.69;99811.06;5093553;27;45443;-67
2023/06/23 10:35:09;;;;;;;;;6.00;6.00;;;;;23.93;59.08;99809.56;5083243;27;46633;-67
2023/06/23 10:37:35;;;;;;;;;9.40;7.80;;;;;24.00;61.73;99819.69;5092222;27;45427;-67
2023/06/23 10:40:04;;;;;;;;;10.25;9.50;;;;;24.05;61.82;99772.66;5087144;27;45455;-65
2023/06/23 10:42:34;;;;;;;;;3.25;3.25;;;;;24.07;63.14;99792.22;5089747;27;45467;-66
2023/06/23 10:45:01;;;;;;;;;9.20;8.80;;;;;24.12;58.80;99780.09;5087849;27;45501;-66
2023/06/23 10:47:27;;;;;;;;;8.20;8.20;;;;;24.19;57.92;99802.81;5075332;27;45479;-66
2023/06/23 10:49:53;;;;;;;;;8.20;8.20;;;;;24.24;62.93;99797.06;5089876;27;45427;-66
2023/06/23 10:52:18;;;;;;;;;5.50;5.50;;;;;24.29;57.28;99813.69;5082281;27;45388;-65
2023/06/23 10:54:44;;;;;;;;;8.00;8.00;;;;;24.34;58.69;99803.34;5087073;27;45546;-66
2023/06/23 10:57:11;;;;;;;;;8.25;8.25;;;;;24.39;57.22;99811.06;5092711;27;45437;-66
2023/06/23 11:00:03;;;;;;;;;11.20;10.20;;;;;24.43;62.67;99799.03;5085572;27;45474;-66
2023/06/23 11:02:29;;;;;;;;;6.00;5.40;;;;;24.43;56.15;99807.97;5064611;27;45413;-66
2023/06/23 11:05:02;;;;;;;;;9.60;7.40;;;;;24.54;58.44;99820.50;5091920;27;46310;-66
2023/06/23 11:07:28;;;;;;;;;7.60;7.60;;;;;24.57;55.81;99791.44;5093310;27;45498;-66
2023/06/23 11:10:01;;;;;;;;;7.00;7.00;;;;;24.64;55.64;99792.59;5076003;27;45357;-67
2023/06/23 11:12:27;;;;;;;;;9.20;8.20;;;;;24.74;60.24;99783.72;5092159;27;45426;-66
2023/06/23 11:14:53;;;;;;;;;8.80;8.80;;;;;24.83;54.49;99783.75;5082513;27;46532;-67
2023/06/23 11:17:21;;;;;;;;;9.25;9.25;;;;;24.94;60.60;99783.69;5094867;27;45499;-66
2023/06/23 11:19:51;;;;;;;;;6.80;5.80;;;;;24.93;55.07;99781.97;5083997;27;45498;-66
2023/06/23 11:22:23;;;;;;;;;4.80;4.00;;;;;24.90;49.53;99792.16;5094978;27;45662;-66
2023/06/23 11:24:52;;;;;;;;;6.00;6.00;;;;;24.91;56.93;99783.94;5084615;27;45795;-66
2023/06/23 11:27:18;;;;;;;;;6.20;6.20;;;;;24.95;56.22;99774.63;5094347;27;45346;-66
2023/06/23 11:30:18;;;;;;;;;7.25;7.25;;;;;25.01;51.05;99776.75;5088796;27;45613;-67